Terminal Aerodrome Forecast
Issued by NWS

Home | Current Version | Previous Version | Text Only | Print | Product List | Glossary On
Versions: 1 2 3 4 5 6 7 8 9 10 11 12 13 14
000
FTUS46 KSTO 200532
TAFSCK
TAF
KSCK 200532Z 2006/2106 VRB03KT P6SM BKN150
     FM201400 13005KT 6SM BR OVC035
      TEMPO 2014/2018 6SM -SHRA OVC015
     FM201800 14005KT P6SM OVC050=

USA.gov is the U.S. government's official web portal to all federal, state and local government web resources and services.